Time;durP1;ratioP1;P1;durP2;ratioP2;P2;SDS_P1;SDS_P2;PMS_P1;PMS_P2;Temp;Humidity;BMP_temperature;BMP_pressure;BME280_temperature;BME280_humidity;BME280_pressure;Samples;Min_cycle;Max_cycle;Signal;HPM_P1;HPM_P2
2022/09/28 00:00:46;;;;;;;;;;;;;;;;;;4950288;28;20931;-72
2022/09/28 00:03:12;;;;;;;;;;;;;;;;;;5032462;28;20285;-73
2022/09/28 00:05:38;;;;;;;;;;;;;;;;;;5033041;28;20355;-72
2022/09/28 00:08:04;;;;;;;;;;;;;;;;;;4937720;28;21299;-71
2022/09/28 00:10:30;;;;;;;;;;;;;;;;;;4720095;28;20238;-71
2022/09/28 00:12:56;;;;;;;;;;;;;;;;;;4721115;28;20183;-72
2022/09/28 00:15:23;;;;;;;;;;;;;;;;;;4719838;28;20189;-73
2022/09/28 00:17:49;;;;;;;;;;;;;;;;;;4699597;28;20314;-73
2022/09/28 00:20:16;;;;;;;;;;;;;;;;;;4705337;28;20303;-73
2022/09/28 00:22:42;;;;;;;;;;;;;;;;;;4721210;28;20329;-71
2022/09/28 00:25:08;;;;;;;;;;;;;;;;;;5007024;28;21074;-71
2022/09/28 00:27:34;;;;;;;;;;;;;;;;;;5013670;28;20444;-71
2022/09/28 00:30:00;;;;;;;;;;;;;;;;;;5014067;28;20924;-71
2022/09/28 00:32:26;;;;;;;;;;;;;;;;;;5013833;28;21023;-72
2022/09/28 00:34:52;;;;;;;;;;;;;;;;;;5012235;28;20417;-71
2022/09/28 00:37:18;;;;;;;;;;;;;;;;;;5014114;28;20826;-72
2022/09/28 00:39:44;;;;;;;;;;;;;;;;;;5024305;28;20382;-73
2022/09/28 00:42:10;;;;;;;;;;;;;;;;;;5032719;28;20371;-73
2022/09/28 00:44:36;;;;;;;;;;;;;;;;;;5032927;28;20355;-73
2022/09/28 00:47:02;;;;;;;;;;;;;;;;;;5033039;28;20443;-72
2022/09/28 00:49:28;;;;;;;;;;;;;;;;;;5032584;28;20373;-72
2022/09/28 00:51:54;;;;;;;;;;;;;;;;;;5032927;28;20461;-73
2022/09/28 00:54:19;;;;;;;;;;;;;;;;;;5032690;28;20461;-73
2022/09/28 00:56:45;;;;;;;;;;;;;;;;;;5023035;28;20369;-72
2022/09/28 00:59:11;;;;;;;;;;;;;;;;;;5013690;28;20460;-73
2022/09/28 01:01:37;;;;;;;;;;;;;;;;;;5013647;28;20366;-72
2022/09/28 01:04:04;;;;;;;;;;;;;;;;;;5012964;28;20385;-73
2022/09/28 01:06:31;;;;;;;;;;;;;;;;;;4946829;28;20797;-73
2022/09/28 01:08:57;;;;;;;;;;;;;;;;;;5013268;28;20397;-72
2022/09/28 01:11:23;;;;;;;;;;;;;;;;;;5012942;28;20436;-73
2022/09/28 01:13:49;;;;;;;;;;;;;;;;;;5000468;28;20184;-72
2022/09/28 01:16:15;;;;;;;;;;;;;;;;;;4971392;28;20268;-72
2022/09/28 01:18:41;;;;;;;;;;;;;;;;;;4706990;28;20217;-72
2022/09/28 01:21:07;;;;;;;;;;;;;;;;;;4703067;28;20264;-73
2022/09/28 01:23:33;;;;;;;;;;;;;;;;;;4883920;28;20865;-72
2022/09/28 01:25:59;;;;;;;;;;;;;;;;;;4703858;28;20212;-71
2022/09/28 01:28:25;;;;;;;;;;;;;;;;;;4699741;28;20275;-73
2022/09/28 01:30:51;;;;;;;;;;;;;;;;;;4698580;28;20231;-72
2022/09/28 01:33:16;;;;;;;;;;;;;;;;;;4984561;28;20731;-72
2022/09/28 01:35:42;;;;;;;;;;;;;;;;;;5028839;28;20139;-73
2022/09/28 01:38:09;;;;;;;;;;;;;;;;;;5029965;28;19920;-71
2022/09/28 01:40:35;;;;;;;;;;;;;;;;;;5030271;28;19920;-72
2022/09/28 01:43:00;;;;;;;;;;;;;;;;;;5031815;28;19919;-71
2022/09/28 01:45:27;;;;;;;;;;;;;;;;;;5031265;28;19969;-71
2022/09/28 01:47:53;;;;;;;;;;;;;;;;;;5031607;28;20057;-70
2022/09/28 01:50:18;;;;;;;;;;;;;;;;;;5031795;28;20430;-70
2022/09/28 01:52:44;;;;;;;;;;;;;;;;;;5031546;28;19924;-71
2022/09/28 01:55:10;;;;;;;;;;;;;;;;;;5031408;28;19912;-72
2022/09/28 01:57:36;;;;;;;;;;;;;;;;;;5031444;28;19905;-71
2022/09/28 02:00:02;;;;;;;;;;;;;;;;;;5031314;28;19928;-70
2022/09/28 02:02:28;;;;;;;;;;;;;;;;;;5031809;28;19939;-71
2022/09/28 02:04:54;;;;;;;;;;;;;;;;;;5025524;28;19926;-71
2022/09/28 02:07:20;;;;;;;;;;;;;;;;;;5030917;28;19919;-71
2022/09/28 02:09:46;;;;;;;;;;;;;;;;;;5030928;28;19916;-70
2022/09/28 02:12:12;;;;;;;;;;;;;;;;;;5029384;28;20009;-71
2022/09/28 02:14:38;;;;;;;;;;;;;;;;;;5012231;28;19912;-71
2022/09/28 02:17:04;;;;;;;;;;;;;;;;;;5012067;28;20404;-69
2022/09/28 02:19:29;;;;;;;;;;;;;;;;;;5012367;28;19905;-71
2022/09/28 02:21:56;;;;;;;;;;;;;;;;;;5011818;28;19939;-70
2022/09/28 02:24:22;;;;;;;;;;;;;;;;;;5012398;28;19906;-71
2022/09/28 02:26:48;;;;;;;;;;;;;;;;;;5012247;28;19909;-70
2022/09/28 02:29:14;;;;;;;;;;;;;;;;;;5012246;28;20369;-71
2022/09/28 02:31:40;;;;;;;;;;;;;;;;;;5031060;28;19913;-71
2022/09/28 02:34:06;;;;;;;;;;;;;;;;;;5025582;28;19920;-72
2022/09/28 02:36:32;;;;;;;;;;;;;;;;;;5030000;28;19951;-72
2022/09/28 02:39:01;;;;;;;;;;;;;;;;;;5028596;28;19927;-72
2022/09/28 02:41:27;;;;;;;;;;;;;;;;;;5030915;28;19927;-70
2022/09/28 02:43:53;;;;;;;;;;;;;;;;;;5029222;28;19920;-72
2022/09/28 02:46:18;;;;;;;;;;;;;;;;;;5030738;28;19930;-70
2022/09/28 02:48:44;;;;;;;;;;;;;;;;;;5027553;28;19920;-72
2022/09/28 02:51:10;;;;;;;;;;;;;;;;;;5030570;28;19913;-72
2022/09/28 02:53:36;;;;;;;;;;;;;;;;;;5026361;28;20018;-71
2022/09/28 02:56:02;;;;;;;;;;;;;;;;;;5012060;28;20519;-71
2022/09/28 02:58:28;;;;;;;;;;;;;;;;;;5011607;28;19936;-72
2022/09/28 03:00:54;;;;;;;;;;;;;;;;;;5011287;28;19909;-72
2022/09/28 03:03:20;;;;;;;;;;;;;;;;;;5010005;28;20292;-70
2022/09/28 03:05:46;;;;;;;;;;;;;;;;;;5012262;28;19951;-71
2022/09/28 03:08:12;;;;;;;;;;;;;;;;;;5011789;28;20558;-71
2022/09/28 03:10:38;;;;;;;;;;;;;;;;;;5010291;28;19989;-71
2022/09/28 03:13:04;;;;;;;;;;;;;;;;;;5011239;28;19921;-72
2022/09/28 03:15:30;;;;;;;;;;;;;;;;;;5011938;28;19916;-72
2022/09/28 03:17:56;;;;;;;;;;;;;;;;;;5011882;28;19936;-71
2022/09/28 03:20:22;;;;;;;;;;;;;;;;;;5011212;28;20417;-73
2022/09/28 03:22:48;;;;;;;;;;;;;;;;;;5011563;28;19993;-72
2022/09/28 03:25:14;;;;;;;;;;;;;;;;;;5011905;28;19922;-72
2022/09/28 03:27:40;;;;;;;;;;;;;;;;;;5011599;28;19949;-72
2022/09/28 03:30:06;;;;;;;;;;;;;;;;;;5008526;28;19954;-73
2022/09/28 03:32:32;;;;;;;;;;;;;;;;;;5011503;28;20052;-73
2022/09/28 03:34:58;;;;;;;;;;;;;;;;;;5010858;28;19981;-72
2022/09/28 03:37:23;;;;;;;;;;;;;;;;;;5030251;28;19948;-71
2022/09/28 03:39:49;;;;;;;;;;;;;;;;;;5016184;28;19945;-72
2022/09/28 03:42:15;;;;;;;;;;;;;;;;;;5011607;28;19953;-71
2022/09/28 03:44:41;;;;;;;;;;;;;;;;;;5011068;28;20069;-72
2022/09/28 03:47:08;;;;;;;;;;;;;;;;;;5011805;28;19983;-72
2022/09/28 03:49:34;;;;;;;;;;;;;;;;;;5010856;28;19964;-70
2022/09/28 03:52:00;;;;;;;;;;;;;;;;;;5011307;28;19984;-71
2022/09/28 03:54:25;;;;;;;;;;;;;;;;;;5011184;28;20408;-71
2022/09/28 03:56:51;;;;;;;;;;;;;;;;;;5011116;28;19967;-70
2022/09/28 03:59:17;;;;;;;;;;;;;;;;;;5010857;28;19952;-70
2022/09/28 04:01:43;;;;;;;;;;;;;;;;;;5014321;28;19984;-71
2022/09/28 04:04:09;;;;;;;;;;;;;;;;;;5014336;28;19956;-70
2022/09/28 04:06:35;;;;;;;;;;;;;;;;;;5014518;28;19968;-71
2022/09/28 04:09:01;;;;;;;;;;;;;;;;;;5014483;28;19964;-71
2022/09/28 04:11:27;;;;;;;;;;;;;;;;;;5014665;28;19986;-71
2022/09/28 04:13:53;;;;;;;;;;;;;;;;;;5014972;28;20390;-71
2022/09/28 04:16:18;;;;;;;;;;;;;;;;;;5014640;28;20003;-71
2022/09/28 04:18:46;;;;;;;;;;;;;;;;;;5013801;28;19979;-71
2022/09/28 04:21:12;;;;;;;;;;;;;;;;;;5011957;28;20309;-71
2022/09/28 04:23:38;;;;;;;;;;;;;;;;;;5012918;28;20373;-72
2022/09/28 04:26:04;;;;;;;;;;;;;;;;;;5013801;28;20373;-71
2022/09/28 04:31:14;;;;;;;;;;;;;;;;;;5013646;28;20401;-71
2022/09/28 04:33:40;;;;;;;;;;;;;;;;;;5013900;28;20366;-73
2022/09/28 04:36:08;;;;;;;;;;;;;;;;;;5013940;28;20388;-71
2022/09/28 04:38:34;;;;;;;;;;;;;;;;;;5014005;28;20362;-73
2022/09/28 04:40:59;;;;;;;;;;;;;;;;;;5026181;28;20371;-72
2022/09/28 04:43:25;;;;;;;;;;;;;;;;;;5032623;28;20370;-73
2022/09/28 04:45:51;;;;;;;;;;;;;;;;;;5030838;28;20382;-73
2022/09/28 04:48:17;;;;;;;;;;;;;;;;;;5017740;28;20385;-71
2022/09/28 04:50:43;;;;;;;;;;;;;;;;;;5013248;28;20424;-71
2022/09/28 04:53:09;;;;;;;;;;;;;;;;;;5013757;28;20438;-71
2022/09/28 04:55:35;;;;;;;;;;;;;;;;;;5027478;28;20371;-72
2022/09/28 04:58:01;;;;;;;;;;;;;;;;;;5032261;28;20363;-72
2022/09/28 05:00:27;;;;;;;;;;;;;;;;;;5032443;28;20371;-71
2022/09/28 05:02:53;;;;;;;;;;;;;;;;;;5032663;28;20450;-72
2022/09/28 05:05:19;;;;;;;;;;;;;;;;;;5032388;28;20454;-72
2022/09/28 05:07:45;;;;;;;;;;;;;;;;;;5032671;28;20399;-72
2022/09/28 05:10:12;;;;;;;;;;;;;;;;;;5013476;28;20397;-71
2022/09/28 05:12:38;;;;;;;;;;;;;;;;;;5032310;28;20382;-71
2022/09/28 05:15:04;;;;;;;;;;;;;;;;;;5032663;28;20370;-71
2022/09/28 05:17:30;;;;;;;;;;;;;;;;;;5012885;28;20382;-70
2022/09/28 05:19:56;;;;;;;;;;;;;;;;;;5013346;28;20892;-70
2022/09/28 05:22:22;;;;;;;;;;;;;;;;;;5013339;28;20377;-71
2022/09/28 05:24:48;;;;;;;;;;;;;;;;;;5013515;28;20958;-72
2022/09/28 05:27:14;;;;;;;;;;;;;;;;;;5013031;28;20460;-73
2022/09/28 05:29:40;;;;;;;;;;;;;;;;;;5013300;28;20377;-70
2022/09/28 05:32:06;;;;;;;;;;;;;;;;;;5012193;28;20416;-70
2022/09/28 05:34:32;;;;;;;;;;;;;;;;;;5012788;28;20484;-71
2022/09/28 05:36:58;;;;;;;;;;;;;;;;;;5013161;28;20384;-71
2022/09/28 05:39:24;;;;;;;;;;;;;;;;;;5022890;28;20735;-69
2022/09/28 05:41:50;;;;;;;;;;;;;;;;;;5032098;28;20433;-69
2022/09/28 05:44:16;;;;;;;;;;;;;;;;;;5031780;28;20909;-71
2022/09/28 05:46:42;;;;;;;;;;;;;;;;;;5017557;28;20404;-71
2022/09/28 05:49:07;;;;;;;;;;;;;;;;;;5019999;28;20378;-59
2022/09/28 05:51:33;;;;;;;;;;;;;;;;;;4729977;28;20821;-70
2022/09/28 05:53:59;;;;;;;;;;;;;;;;;;4719946;28;20196;-69
2022/09/28 05:56:25;;;;;;;;;;;;;;;;;;4718681;28;20719;-69
2022/09/28 05:58:51;;;;;;;;;;;;;;;;;;4716542;28;20213;-68
2022/09/28 06:01:17;;;;;;;;;;;;;;;;;;4716620;28;20241;-69
2022/09/28 06:03:43;;;;;;;;;;;;;;;;;;4716169;28;20344;-69
2022/09/28 06:06:09;;;;;;;;;;;;;;;;;;4720906;28;20176;-69
2022/09/28 06:08:34;;;;;;;;;;;;;;;;;;4719233;28;20740;-69
2022/09/28 06:11:00;;;;;;;;;;;;;;;;;;4702602;28;20222;-69
2022/09/28 06:13:26;;;;;;;;;;;;;;;;;;4703210;28;20218;-68
2022/09/28 06:15:52;;;;;;;;;;;;;;;;;;4719350;28;20191;-70
2022/09/28 06:18:18;;;;;;;;;;;;;;;;;;4720217;28;20180;-70
2022/09/28 06:20:44;;;;;;;;;;;;;;;;;;4721308;28;20697;-70
2022/09/28 06:23:10;;;;;;;;;;;;;;;;;;4720005;28;20288;-69
2022/09/28 06:25:36;;;;;;;;;;;;;;;;;;4708049;28;20725;-69
2022/09/28 06:28:02;;;;;;;;;;;;;;;;;;4704337;28;20266;-66
2022/09/28 06:30:27;;;;;;;;;;;;;;;;;;4700798;28;20212;-69
2022/09/28 06:32:54;;;;;;;;;;;;;;;;;;4710946;28;20285;-60
2022/09/28 06:35:20;;;;;;;;;;;;;;;;;;4703768;28;20276;-62
2022/09/28 06:37:46;;;;;;;;;;;;;;;;;;4705665;28;20245;-61
2022/09/28 06:40:12;;;;;;;;;;;;;;;;;;4713936;28;20641;-61
2022/09/28 06:42:37;;;;;;;;;;;;;;;;;;4711326;28;20202;-60
2022/09/28 06:45:03;;;;;;;;;;;;;;;;;;4708282;28;20224;-60
2022/09/28 06:47:32;;;;;;;;;;;;;;;;;;4710766;28;20327;-59
2022/09/28 06:49:58;;;;;;;;;;;;;;;;;;4711999;28;20231;-61
2022/09/28 06:52:24;;;;;;;;;;;;;;;;;;4710634;28;20228;-60
2022/09/28 06:54:50;;;;;;;;;;;;;;;;;;4711161;28;20178;-61
2022/09/28 06:57:16;;;;;;;;;;;;;;;;;;4710108;28;20177;-61
2022/09/28 06:59:42;;;;;;;;;;;;;;;;;;4708395;28;20205;-62
2022/09/28 07:02:08;;;;;;;;;;;;;;;;;;4708645;28;20947;-62
2022/09/28 07:04:34;;;;;;;;;;;;;;;;;;4710754;28;20182;-62
2022/09/28 07:07:00;;;;;;;;;;;;;;;;;;4711172;28;20210;-61
2022/09/28 07:09:26;;;;;;;;;;;;;;;;;;4711389;28;20944;-59
2022/09/28 07:11:52;;;;;;;;;;;;;;;;;;4711845;28;20230;-62
2022/09/28 07:14:20;;;;;;;;;;;;;;;;;;4710315;28;20211;-60
2022/09/28 07:16:46;;;;;;;;;;;;;;;;;;4707542;28;20236;-61
2022/09/28 07:19:13;;;;;;;;;;;;;;;;;;4708967;28;20347;-61
2022/09/28 07:21:39;;;;;;;;;;;;;;;;;;4709211;28;20268;-60
2022/09/28 07:24:05;;;;;;;;;;;;;;;;;;4709937;28;20701;-62
2022/09/28 07:26:32;;;;;;;;;;;;;;;;;;4710132;28;20596;-61
2022/09/28 07:28:58;;;;;;;;;;;;;;;;;;4728166;28;20653;-62
2022/09/28 07:31:24;;;;;;;;;;;;;;;;;;4709974;28;20179;-60
2022/09/28 07:33:50;;;;;;;;;;;;;;;;;;4708209;28;20750;-59
2022/09/28 07:36:17;;;;;;;;;;;;;;;;;;4712112;28;20656;-60
2022/09/28 07:38:43;;;;;;;;;;;;;;;;;;4713389;28;20312;-60
2022/09/28 07:41:13;;;;;;;;;;;;;;;;;;4728896;28;20318;-60
2022/09/28 07:43:39;;;;;;;;;;;;;;;;;;4729246;28;20180;-60
2022/09/28 07:46:10;;;;;;;;;;;;;;;;;;4714885;28;20235;-60
2022/09/28 07:48:36;;;;;;;;;;;;;;;;;;4712947;28;20177;-61
2022/09/28 07:51:02;;;;;;;;;;;;;;;;;;4714019;28;20182;-60
2022/09/28 07:53:29;;;;;;;;;;;;;;;;;;4718513;28;20209;-63
2022/09/28 07:55:55;;;;;;;;;;;;;;;;;;4708789;28;20737;-63
2022/09/28 07:58:21;;;;;;;;;;;;;;;;;;4708197;28;20248;-63
2022/09/28 08:00:47;;;;;;;;;;;;;;;;;;4712731;28;20213;-61
2022/09/28 08:03:13;;;;;;;;;;;;;;;;;;4707997;28;20704;-64
2022/09/28 08:05:41;;;;;;;;;;;;;;;;;;4711193;28;20192;-59
2022/09/28 08:08:07;;;;;;;;;;;;;;;;;;4711915;28;20530;-61
2022/09/28 08:10:33;;;;;;;;;;;;;;;;;;4713253;28;20177;-61
2022/09/28 08:13:02;;;;;;;;;;;;;;;;;;4714231;28;20220;-60
2022/09/28 08:15:29;;;;;;;;;;;;;;;;;;4711633;28;20215;-61
2022/09/28 08:17:55;;;;;;;;;;;;;;;;;;4709367;28;20176;-62
2022/09/28 08:23:05;;;;;;;;;;;;;;;;;;4721400;28;20384;-60
2022/09/28 08:25:31;;;;;;;;;;;;;;;;;;4714246;28;20175;-60
2022/09/28 08:27:58;;;;;;;;;;;;;;;;;;4710174;28;20240;-60
2022/09/28 08:30:25;;;;;;;;;;;;;;;;;;4712028;28;20203;-60
2022/09/28 08:32:51;;;;;;;;;;;;;;;;;;4710950;28;20180;-61
2022/09/28 08:35:17;;;;;;;;;;;;;;;;;;4767430;28;20235;-62
2022/09/28 08:37:43;;;;;;;;;;;;;;;;;;4996406;28;20464;-62
2022/09/28 08:40:09;;;;;;;;;;;;;;;;;;4992545;28;20258;-60
2022/09/28 08:42:34;;;;;;;;;;;;;;;;;;5008635;28;20358;-61
2022/09/28 08:45:01;;;;;;;;;;;;;;;;;;4749194;28;20583;-61
2022/09/28 08:50:13;;;;;;;;;;;;;;;;;;5032626;28;20752;-61
2022/09/28 08:52:38;;;;;;;;;;;;;;;;;;4990658;28;20915;-61
2022/09/28 08:55:04;;;;;;;;;;;;;;;;;;4729822;28;20169;-62
2022/09/28 08:57:30;;;;;;;;;;;;;;;;;;4726609;28;20171;-61
2022/09/28 08:59:57;;;;;;;;;;;;;;;;;;4729933;28;20199;-61
2022/09/28 09:02:24;;;;;;;;;;;;;;;;;;4728744;28;20209;-61
2022/09/28 09:04:50;;;;;;;;;;;;;;;;;;4726803;28;20223;-61
2022/09/28 09:07:16;;;;;;;;;;;;;;;;;;4728315;28;20196;-61
2022/09/28 09:09:42;;;;;;;;;;;;;;;;;;4711546;28;20247;-60
2022/09/28 09:12:08;;;;;;;;;;;;;;;;;;4706845;28;20209;-61
2022/09/28 09:14:34;;;;;;;;;;;;;;;;;;4707625;28;20193;-61
2022/09/28 09:17:00;;;;;;;;;;;;;;;;;;4709626;28;20216;-61
2022/09/28 09:19:26;;;;;;;;;;;;;;;;;;4712035;28;20765;-61
2022/09/28 09:21:52;;;;;;;;;;;;;;;;;;4709544;28;20226;-60
2022/09/28 09:24:20;;;;;;;;;;;;;;;;;;4721053;28;20236;-61
2022/09/28 09:26:46;;;;;;;;;;;;;;;;;;4713946;28;20256;-61
2022/09/28 09:29:12;;;;;;;;;;;;;;;;;;4854888;28;20342;-59
2022/09/28 09:31:38;;;;;;;;;;;;;;;;;;5012510;28;20772;-61
2022/09/28 09:34:04;;;;;;;;;;;;;;;;;;4873051;28;20878;-61
2022/09/28 09:36:30;;;;;;;;;;;;;;;;;;4711354;28;20168;-61
2022/09/28 09:38:57;;;;;;;;;;;;;;;;;;4713281;28;20268;-61
2022/09/28 09:41:22;;;;;;;;;;;;;;;;;;4731969;28;20204;-61
2022/09/28 09:43:48;;;;;;;;;;;;;;;;;;4727339;28;20178;-61
2022/09/28 09:46:14;;;;;;;;;;;;;;;;;;4722687;28;20199;-61
2022/09/28 09:48:40;;;;;;;;;;;;;;;;;;4708120;28;20265;-61
2022/09/28 09:51:06;;;;;;;;;;;;;;;;;;4706813;28;20230;-61
2022/09/28 09:53:32;;;;;;;;;;;;;;;;;;4707384;28;20204;-60
2022/09/28 09:56:00;;;;;;;;;;;;;;;;;;4706386;28;20724;-61
2022/09/28 09:58:26;;;;;;;;;;;;;;;;;;4727108;28;20462;-62
2022/09/28 10:00:52;;;;;;;;;;;;;;;;;;4727307;28;20213;-60
2022/09/28 10:03:17;;;;;;;;;;;;;;;;;;4875965;28;20199;-61
2022/09/28 10:05:43;;;;;;;;;;;;;;;;;;4778967;28;20421;-61
2022/09/28 10:08:09;;;;;;;;;;;;;;;;;;4800016;28;20606;-61
2022/09/28 10:10:35;;;;;;;;;;;;;;;;;;4790656;28;20411;-61
2022/09/28 10:13:01;;;;;;;;;;;;;;;;;;4729620;28;20211;-61
2022/09/28 10:15:27;;;;;;;;;;;;;;;;;;4723356;28;20214;-60
2022/09/28 10:17:53;;;;;;;;;;;;;;;;;;4728519;28;20314;-59
2022/09/28 10:20:19;;;;;;;;;;;;;;;;;;4728367;28;20182;-60
2022/09/28 10:22:45;;;;;;;;;;;;;;;;;;4728803;28;20227;-61
2022/09/28 10:25:11;;;;;;;;;;;;;;;;;;4728940;28;20227;-60
2022/09/28 10:27:37;;;;;;;;;;;;;;;;;;4721062;28;20654;-61
2022/09/28 10:30:03;;;;;;;;;;;;;;;;;;4712412;28;20614;-61
2022/09/28 10:32:28;;;;;;;;;;;;;;;;;;4714779;28;20353;-59
2022/09/28 10:34:54;;;;;;;;;;;;;;;;;;4710116;28;20192;-60
2022/09/28 10:37:21;;;;;;;;;;;;;;;;;;4707816;28;20269;-60
2022/09/28 10:39:47;;;;;;;;;;;;;;;;;;4713158;28;20192;-60
2022/09/28 10:42:13;;;;;;;;;;;;;;;;;;4701500;28;20240;-59
2022/09/28 10:44:38;;;;;;;;;;;;;;;;;;4710298;28;20237;-60
2022/09/28 10:47:05;;;;;;;;;;;;;;;;;;4714683;28;20315;-59
2022/09/28 10:49:30;;;;;;;;;;;;;;;;;;4717192;28;20214;-61
2022/09/28 10:51:56;;;;;;;;;;;;;;;;;;4723954;28;20183;-62
2022/09/28 10:54:22;;;;;;;;;;;;;;;;;;4800201;28;20308;-61
2022/09/28 10:56:48;;;;;;;;;;;;;;;;;;4708126;28;20621;-59
2022/09/28 10:59:14;;;;;;;;;;;;;;;;;;4712826;28;20660;-61
2022/09/28 11:01:40;;;;;;;;;;;;;;;;;;4726488;28;20188;-62
2022/09/28 11:04:09;;;;;;;;;;;;;;;;;;4705280;28;20189;-62
2022/09/28 11:06:35;;;;;;;;;;;;;;;;;;4707992;28;20186;-61
2022/09/28 11:09:01;;;;;;;;;;;;;;;;;;4705669;28;20226;-61
2022/09/28 11:11:28;;;;;;;;;;;;;;;;;;4703916;28;20324;-61
2022/09/28 11:13:54;;;;;;;;;;;;;;;;;;4713364;28;20221;-62
2022/09/28 11:16:20;;;;;;;;;;;;;;;;;;4706596;28;20225;-61
2022/09/28 11:18:46;;;;;;;;;;;;;;;;;;4706114;28;20189;-61
2022/09/28 11:21:12;;;;;;;;;;;;;;;;;;4706655;28;20178;-62
2022/09/28 11:23:38;;;;;;;;;;;;;;;;;;4712370;28;20650;-59
2022/09/28 11:26:04;;;;;;;;;;;;;;;;;;4712390;28;20309;-60
2022/09/28 11:28:31;;;;;;;;;;;;;;;;;;4710162;28;20271;-62
2022/09/28 11:30:58;;;;;;;;;;;;;;;;;;4707096;28;20224;-59
2022/09/28 11:33:23;;;;;;;;;;;;;;;;;;4703935;28;20290;-58
2022/09/28 11:35:49;;;;;;;;;;;;;;;;;;4706683;28;20292;-60
2022/09/28 11:38:15;;;;;;;;;;;;;;;;;;4709784;28;20231;-59
2022/09/28 11:40:41;;;;;;;;;;;;;;;;;;4725725;28;20203;-59
2022/09/28 11:43:07;;;;;;;;;;;;;;;;;;4721887;28;20692;-61
2022/09/28 11:45:33;;;;;;;;;;;;;;;;;;4715964;28;20185;-63
2022/09/28 11:47:59;;;;;;;;;;;;;;;;;;4721828;28;20218;-60
2022/09/28 11:50:25;;;;;;;;;;;;;;;;;;4939620;28;20258;-61
2022/09/28 11:52:51;;;;;;;;;;;;;;;;;;5010332;28;20381;-61
2022/09/28 11:55:17;;;;;;;;;;;;;;;;;;5013094;28;20805;-59
2022/09/28 11:57:43;;;;;;;;;;;;;;;;;;5010601;28;20423;-59
2022/09/28 12:00:09;;;;;;;;;;;;;;;;;;4747933;28;20550;-60
2022/09/28 12:02:35;;;;;;;;;;;;;;;;;;4839396;28;20234;-58
2022/09/28 12:05:01;;;;;;;;;;;;;;;;;;4989531;28;20797;-59
2022/09/28 12:07:27;;;;;;;;;;;;;;;;;;4983373;28;20239;-59
2022/09/28 12:09:53;;;;;;;;;;;;;;;;;;5012067;28;20411;-61
2022/09/28 12:12:19;;;;;;;;;;;;;;;;;;4942025;28;20530;-59
2022/09/28 12:14:45;;;;;;;;;;;;;;;;;;4709451;28;20214;-60
2022/09/28 12:17:11;;;;;;;;;;;;;;;;;;4711254;28;20214;-59
2022/09/28 12:19:37;;;;;;;;;;;;;;;;;;4707043;28;20275;-60
2022/09/28 12:22:03;;;;;;;;;;;;;;;;;;4718385;28;20233;-60
2022/09/28 12:24:29;;;;;;;;;;;;;;;;;;4718423;28;20217;-59
2022/09/28 12:26:55;;;;;;;;;;;;;;;;;;4716661;28;20272;-59
2022/09/28 12:29:21;;;;;;;;;;;;;;;;;;4710720;28;20298;-60
2022/09/28 12:31:46;;;;;;;;;;;;;;;;;;4712483;28;20232;-59
2022/09/28 12:34:12;;;;;;;;;;;;;;;;;;4703774;28;20678;-60
2022/09/28 12:36:40;;;;;;;;;;;;;;;;;;4704571;28;20179;-60
2022/09/28 12:39:06;;;;;;;;;;;;;;;;;;4706126;28;20230;-61
2022/09/28 12:41:32;;;;;;;;;;;;;;;;;;4701562;28;20212;-61
2022/09/28 12:43:58;;;;;;;;;;;;;;;;;;4707936;28;20186;-60
2022/09/28 12:46:23;;;;;;;;;;;;;;;;;;4707399;28;20219;-61
2022/09/28 12:48:49;;;;;;;;;;;;;;;;;;4707913;28;20567;-60
2022/09/28 12:51:15;;;;;;;;;;;;;;;;;;4708511;28;20198;-60
2022/09/28 12:53:41;;;;;;;;;;;;;;;;;;4701125;28;20182;-62
2022/09/28 12:56:08;;;;;;;;;;;;;;;;;;4705190;28;20178;-62
2022/09/28 12:58:35;;;;;;;;;;;;;;;;;;4718416;28;20227;-60
2022/09/28 13:01:01;;;;;;;;;;;;;;;;;;4723778;28;20302;-60
2022/09/28 13:03:30;;;;;;;;;;;;;;;;;;4721752;28;20350;-61
2022/09/28 13:05:56;;;;;;;;;;;;;;;;;;4714912;28;20658;-60
2022/09/28 13:08:22;;;;;;;;;;;;;;;;;;4713003;28;20178;-63
2022/09/28 13:10:48;;;;;;;;;;;;;;;;;;4712785;28;20298;-61
2022/09/28 13:13:14;;;;;;;;;;;;;;;;;;4714300;28;20190;-60
2022/09/28 13:15:40;;;;;;;;;;;;;;;;;;4709135;28;20174;-60
2022/09/28 13:18:06;;;;;;;;;;;;;;;;;;4704506;28;20188;-60
2022/09/28 13:20:32;;;;;;;;;;;;;;;;;;4701076;28;20769;-61
2022/09/28 13:22:58;;;;;;;;;;;;;;;;;;4703596;28;20176;-60
2022/09/28 13:25:24;;;;;;;;;;;;;;;;;;4702005;28;20179;-61
2022/09/28 13:27:50;;;;;;;;;;;;;;;;;;4706182;28;20215;-61
2022/09/28 13:30:18;;;;;;;;;;;;;;;;;;4707739;28;20176;-61
2022/09/28 13:32:44;;;;;;;;;;;;;;;;;;4704176;28;20229;-60
2022/09/28 13:35:10;;;;;;;;;;;;;;;;;;4713215;28;20213;-62
2022/09/28 13:37:36;;;;;;;;;;;;;;;;;;4730271;28;20216;-60
2022/09/28 13:40:04;;;;;;;;;;;;;;;;;;4727050;28;20199;-59
2022/09/28 13:42:30;;;;;;;;;;;;;;;;;;4726572;28;20172;-62
2022/09/28 13:44:58;;;;;;;;;;;;;;;;;;4714495;28;20235;-60
2022/09/28 13:47:24;;;;;;;;;;;;;;;;;;4726627;28;20173;-62
2022/09/28 13:49:50;;;;;;;;;;;;;;;;;;4714854;28;20194;-60
2022/09/28 13:52:16;;;;;;;;;;;;;;;;;;4715974;28;20236;-61
2022/09/28 13:54:42;;;;;;;;;;;;;;;;;;4713593;28;20268;-60
2022/09/28 13:57:08;;;;;;;;;;;;;;;;;;4717509;28;20225;-65
2022/09/28 13:59:35;;;;;;;;;;;;;;;;;;4731051;28;20176;-64
2022/09/28 14:02:02;;;;;;;;;;;;;;;;;;4734547;28;20260;-61
2022/09/28 14:04:28;;;;;;;;;;;;;;;;;;4717560;28;20188;-62
2022/09/28 14:06:54;;;;;;;;;;;;;;;;;;4713641;28;20182;-61
2022/09/28 14:09:20;;;;;;;;;;;;;;;;;;4715087;28;20159;-62
2022/09/28 14:11:46;;;;;;;;;;;;;;;;;;4714192;28;20235;-62
2022/09/28 14:14:15;;;;;;;;;;;;;;;;;;4712689;28;20688;-61
2022/09/28 14:16:41;;;;;;;;;;;;;;;;;;4714966;28;20175;-61
2022/09/28 14:19:07;;;;;;;;;;;;;;;;;;4858948;28;20263;-61
2022/09/28 14:21:32;;;;;;;;;;;;;;;;;;4979573;28;20300;-61
2022/09/28 14:23:58;;;;;;;;;;;;;;;;;;4706796;28;20240;-62
2022/09/28 14:26:24;;;;;;;;;;;;;;;;;;4883210;28;20838;-63
2022/09/28 14:28:52;;;;;;;;;;;;;;;;;;4729879;28;20201;-62
2022/09/28 14:31:18;;;;;;;;;;;;;;;;;;4904883;28;20256;-61
2022/09/28 14:33:44;;;;;;;;;;;;;;;;;;5028849;28;20790;-62
2022/09/28 14:36:10;;;;;;;;;;;;;;;;;;4740942;28;20459;-62
2022/09/28 14:41:20;;;;;;;;;;;;;;;;;;4707711;28;20194;-62
2022/09/28 14:43:46;;;;;;;;;;;;;;;;;;4706895;28;20179;-62
2022/09/28 14:46:15;;;;;;;;;;;;;;;;;;4856464;28;20352;-62
2022/09/28 14:48:46;;;;;;;;;;;;;;;;;;4966913;28;20365;-62
2022/09/28 14:51:12;;;;;;;;;;;;;;;;;;4722140;28;20464;-60
2022/09/28 14:53:38;;;;;;;;;;;;;;;;;;4704764;28;20275;-61
2022/09/28 14:56:04;;;;;;;;;;;;;;;;;;4700213;28;20201;-61
2022/09/28 14:58:32;;;;;;;;;;;;;;;;;;4707248;28;20267;-60
2022/09/28 15:00:58;;;;;;;;;;;;;;;;;;4732826;28;20214;-62
2022/09/28 15:03:24;;;;;;;;;;;;;;;;;;5010484;28;20470;-61
2022/09/28 15:05:51;;;;;;;;;;;;;;;;;;4851984;28;20432;-60
2022/09/28 15:08:17;;;;;;;;;;;;;;;;;;5008983;28;20368;-60
2022/09/28 15:10:44;;;;;;;;;;;;;;;;;;4963598;28;20343;-62
2022/09/28 15:13:10;;;;;;;;;;;;;;;;;;5010007;28;20452;-62
2022/09/28 15:15:36;;;;;;;;;;;;;;;;;;5006406;28;20498;-63
2022/09/28 15:18:02;;;;;;;;;;;;;;;;;;5006786;28;20928;-63
2022/09/28 15:20:31;;;;;;;;;;;;;;;;;;5013518;28;20375;-63
2022/09/28 15:22:57;;;;;;;;;;;;;;;;;;5013436;28;20381;-63
2022/09/28 15:25:23;;;;;;;;;;;;;;;;;;5027777;28;20759;-62
2022/09/28 15:27:51;;;;;;;;;;;;;;;;;;5026571;28;20371;-65
2022/09/28 15:30:17;;;;;;;;;;;;;;;;;;4884476;28;20445;-62
2022/09/28 15:32:43;;;;;;;;;;;;;;;;;;4703430;28;20210;-63
2022/09/28 15:35:09;;;;;;;;;;;;;;;;;;4707508;28;20195;-62
2022/09/28 15:37:35;;;;;;;;;;;;;;;;;;4707097;28;20215;-62
2022/09/28 15:40:00;;;;;;;;;;;;;;;;;;4714509;28;20771;-62
2022/09/28 15:42:26;;;;;;;;;;;;;;;;;;4722613;28;20203;-61
2022/09/28 15:44:52;;;;;;;;;;;;;;;;;;4721833;28;20183;-63
2022/09/28 15:47:23;;;;;;;;;;;;;;;;;;4722039;28;20724;-61
2022/09/28 15:49:49;;;;;;;;;;;;;;;;;;4718829;28;20238;-62
2022/09/28 15:52:18;;;;;;;;;;;;;;;;;;4718774;28;20255;-61
2022/09/28 15:54:44;;;;;;;;;;;;;;;;;;4718707;28;20356;-62
2022/09/28 15:57:10;;;;;;;;;;;;;;;;;;4710405;28;20576;-60
2022/09/28 15:59:37;;;;;;;;;;;;;;;;;;4717200;28;20221;-62
2022/09/28 16:02:03;;;;;;;;;;;;;;;;;;4728622;28;20557;-62
2022/09/28 16:04:29;;;;;;;;;;;;;;;;;;4716642;28;20214;-62
2022/09/28 16:06:55;;;;;;;;;;;;;;;;;;4717594;28;20156;-62
2022/09/28 16:09:21;;;;;;;;;;;;;;;;;;4717532;28;20627;-62
2022/09/28 16:11:47;;;;;;;;;;;;;;;;;;4720252;28;20175;-61
2022/09/28 16:14:13;;;;;;;;;;;;;;;;;;4717882;28;20285;-62
2022/09/28 16:16:40;;;;;;;;;;;;;;;;;;4719945;28;20311;-63
2022/09/28 16:19:06;;;;;;;;;;;;;;;;;;4719929;28;20232;-62
2022/09/28 16:21:32;;;;;;;;;;;;;;;;;;4717515;28;20222;-63
2022/09/28 16:23:58;;;;;;;;;;;;;;;;;;4712100;28;20169;-62
2022/09/28 16:26:24;;;;;;;;;;;;;;;;;;4708994;28;20266;-61
2022/09/28 16:28:50;;;;;;;;;;;;;;;;;;4711487;28;20217;-61
2022/09/28 16:31:16;;;;;;;;;;;;;;;;;;4714074;28;20184;-61
2022/09/28 16:33:42;;;;;;;;;;;;;;;;;;4709573;28;20227;-62
2022/09/28 16:36:08;;;;;;;;;;;;;;;;;;4710606;28;20533;-62
2022/09/28 16:38:37;;;;;;;;;;;;;;;;;;4710017;28;20214;-62
2022/09/28 16:41:03;;;;;;;;;;;;;;;;;;4727550;28;20214;-62
2022/09/28 16:43:29;;;;;;;;;;;;;;;;;;4710183;28;20623;-63
2022/09/28 16:45:56;;;;;;;;;;;;;;;;;;4708652;28;20980;-61
2022/09/28 16:48:22;;;;;;;;;;;;;;;;;;4711107;28;20181;-63